Time;durP1;ratioP1;P1;durP2;ratioP2;P2;SDS_P1;SDS_P2;PMS_P1;PMS_P2;Temp;Humidity;BMP_temperature;BMP_pressure;BME280_temperature;BME280_humidity;BME280_pressure;Samples;Min_cycle;Max_cycle;Signal;HPM_P1;HPM_P2
2021/10/29 00:00:07;;;;;;;23.30;15.73;;;9.50;91.60;;;;;;5094637;28;20035;-81
2021/10/29 00:02:33;;;;;;;27.00;15.30;;;9.50;91.60;;;;;;5086817;28;20054;-81
2021/10/29 00:04:59;;;;;;;22.93;15.07;;;9.50;91.60;;;;;;5083968;28;20040;-80
2021/10/29 00:07:25;;;;;;;21.23;15.57;;;9.50;91.50;;;;;;5071000;28;20067;-80
2021/10/29 00:09:52;;;;;;;27.60;15.83;;;9.40;91.50;;;;;;5083478;28;20416;-81
2021/10/29 00:12:18;;;;;;;25.10;16.10;;;9.40;91.60;;;;;;5095457;28;20027;-80
2021/10/29 00:14:45;;;;;;;23.57;15.27;;;9.50;91.60;;;;;;5093409;28;20107;-81
2021/10/29 00:17:11;;;;;;;20.77;15.27;;;9.50;91.50;;;;;;5074355;28;20464;-81
2021/10/29 00:19:37;;;;;;;20.30;14.30;;;9.50;91.50;;;;;;5085625;28;20028;-80
2021/10/29 00:22:04;;;;;;;21.53;14.50;;;9.40;91.40;;;;;;5091945;28;20383;-81
2021/10/29 00:24:30;;;;;;;19.60;15.13;;;9.40;91.50;;;;;;5094665;28;20117;-81
2021/10/29 00:26:55;;;;;;;21.40;14.30;;;9.40;91.50;;;;;;5111436;28;20471;-81
2021/10/29 00:29:21;;;;;;;23.37;14.60;;;9.40;91.40;;;;;;5101322;28;20205;-81
2021/10/29 00:31:48;;;;;;;22.47;14.47;;;9.50;91.40;;;;;;5087734;28;20059;-81
2021/10/29 00:34:14;;;;;;;21.30;14.87;;;9.40;91.40;;;;;;5111581;28;20066;-80
2021/10/29 00:36:40;;;;;;;18.40;13.57;;;9.50;91.40;;;;;;5093608;28;20078;-81
2021/10/29 00:39:05;;;;;;;24.67;14.60;;;9.40;91.40;;;;;;5112130;28;20032;-81
2021/10/29 00:41:34;;;;;;;20.90;14.23;;;9.40;91.40;;;;;;5093432;28;20061;-82
2021/10/29 00:43:59;;;;;;;20.27;13.63;;;9.40;91.40;;;;;;5057860;28;20028;-81
2021/10/29 00:46:26;;;;;;;19.97;14.17;;;9.40;91.40;;;;;;5091072;28;20046;-81
2021/10/29 00:48:52;;;;;;;21.57;12.93;;;9.40;91.40;;;;;;5068474;28;20033;-81
2021/10/29 00:51:19;;;;;;;17.27;12.90;;;9.40;91.40;;;;;;5076330;28;20038;-81
2021/10/29 00:53:46;;;;;;;17.57;13.43;;;9.40;91.40;;;;;;5112007;28;20036;-80
2021/10/29 00:56:12;;;;;;;21.87;12.83;;;9.40;91.40;;;;;;5107736;28;20438;-81
2021/10/29 00:58:37;;;;;;;19.40;13.17;;;9.40;91.40;;;;;;5081690;28;20088;-81
2021/10/29 01:01:03;;;;;;;17.03;12.63;;;9.40;91.30;;;;;;5076248;28;20043;-79
2021/10/29 01:03:30;;;;;;;21.03;13.67;;;9.50;91.40;;;;;;5075376;28;20036;-81
2021/10/29 01:05:57;;;;;;;20.00;12.97;;;9.50;91.30;;;;;;5111935;28;20034;-80
2021/10/29 01:08:22;;;;;;;18.97;12.20;;;9.50;91.20;;;;;;5111150;28;20028;-80
2021/10/29 01:10:49;;;;;;;17.27;12.23;;;9.50;91.20;;;;;;5093445;28;20023;-81
2021/10/29 01:13:15;;;;;;;18.70;12.03;;;9.50;91.10;;;;;;5093268;28;20028;-81
2021/10/29 01:15:42;;;;;;;17.53;12.70;;;9.60;91.10;;;;;;5075822;28;20027;-81
2021/10/29 01:18:07;;;;;;;16.90;12.77;;;9.50;91.00;;;;;;5056791;28;20038;-78
2021/10/29 01:20:33;;;;;;;21.03;13.13;;;9.50;91.00;;;;;;5072849;28;20531;-79
2021/10/29 01:22:59;;;;;;;17.70;12.23;;;9.60;91.00;;;;;;5097753;28;20106;-80
2021/10/29 01:25:25;;;;;;;17.10;11.90;;;9.60;91.10;;;;;;5090774;28;20862;-81
2021/10/29 01:27:50;;;;;;;19.37;13.27;;;9.60;90.90;;;;;;5100108;28;20104;-81
2021/10/29 01:30:16;;;;;;;17.43;11.50;;;9.60;90.90;;;;;;5092871;28;20035;-81
2021/10/29 01:32:42;;;;;;;19.03;11.80;;;9.60;90.90;;;;;;5098355;28;20042;-81
2021/10/29 01:35:09;;;;;;;17.50;12.00;;;9.60;90.80;;;;;;5092862;28;20035;-79
2021/10/29 01:37:38;;;;;;;18.57;10.43;;;9.60;90.80;;;;;;5092187;28;20118;-81
2021/10/29 01:40:16;;;;;;;16.63;11.63;;;9.60;90.70;;;;;;5092772;28;20529;-81
2021/10/29 01:42:42;;;;;;;16.57;10.70;;;9.70;90.80;;;;;;5111862;28;20055;-80
2021/10/29 01:45:09;;;;;;;17.00;10.87;;;9.70;90.70;;;;;;5071887;28;20412;-79
2021/10/29 01:47:35;;;;;;;14.33;9.87;;;9.60;90.70;;;;;;5105221;28;20032;-81
2021/10/29 01:50:01;;;;;;;16.70;11.03;;;9.60;90.70;;;;;;5092025;28;20084;-81
2021/10/29 01:52:28;;;;;;;15.03;9.87;;;9.70;90.80;;;;;;5075409;28;20123;-81
2021/10/29 01:54:54;;;;;;;16.03;11.10;;;9.70;90.80;;;;;;5092153;28;20054;-82
2021/10/29 01:57:20;;;;;;;17.03;10.07;;;9.70;90.80;;;;;;5089792;28;20040;-82
2021/10/29 01:59:46;;;;;;;16.60;10.30;;;9.70;90.80;;;;;;5085572;28;20024;-82
2021/10/29 02:02:12;;;;;;;15.73;10.20;;;9.70;90.80;;;;;;5078667;28;20046;-79
2021/10/29 02:04:38;;;;;;;15.57;9.97;;;9.70;90.80;;;;;;5072226;28;20035;-81
2021/10/29 02:07:04;;;;;;;14.77;9.90;;;9.70;90.80;;;;;;5090914;28;20035;-81
2021/10/29 02:09:29;;;;;;;13.43;10.17;;;9.70;90.80;;;;;;5091225;28;20024;-81
2021/10/29 02:11:55;;;;;;;13.07;9.90;;;9.70;90.90;;;;;;5073368;28;20341;-81
2021/10/29 02:14:21;;;;;;;14.90;9.70;;;9.60;90.90;;;;;;5073401;28;20040;-81
2021/10/29 02:16:47;;;;;;;15.13;10.40;;;9.60;91.00;;;;;;5076302;28;20135;-81
2021/10/29 02:19:13;;;;;;;13.27;9.43;;;9.60;91.30;;;;;;5090694;28;20040;-78
2021/10/29 02:21:39;;;;;;;14.27;10.03;;;9.60;91.10;;;;;;5081980;28;20036;-81
2021/10/29 02:24:05;;;;;;;13.63;9.90;;;9.50;91.20;;;;;;5076207;28;20035;-80
2021/10/29 02:26:31;;;;;;;17.23;10.40;;;9.50;91.20;;;;;;5070972;28;20510;-80
2021/10/29 02:28:57;;;;;;;13.97;9.90;;;9.50;91.30;;;;;;5088478;28;20036;-80
2021/10/29 02:31:26;;;;;;;13.97;9.97;;;9.50;91.30;;;;;;5092094;28;20023;-79
2021/10/29 02:33:52;;;;;;;16.67;9.67;;;9.50;91.40;;;;;;5087294;28;20028;-80
2021/10/29 02:36:18;;;;;;;14.40;10.30;;;9.50;91.50;;;;;;5079470;28;20117;-77
2021/10/29 02:38:44;;;;;;;14.77;10.33;;;9.50;91.50;;;;;;5110387;28;20039;-79
2021/10/29 02:41:10;;;;;;;13.80;9.50;;;9.50;91.50;;;;;;5092858;28;20024;-80
2021/10/29 02:43:36;;;;;;;14.60;9.73;;;9.60;91.60;;;;;;5073926;28;20036;-80
2021/10/29 02:46:01;;;;;;;14.60;9.97;;;9.60;91.50;;;;;;5075874;28;20040;-79
2021/10/29 02:48:27;;;;;;;13.67;10.43;;;9.60;91.50;;;;;;5083674;28;20028;-79
2021/10/29 02:50:53;;;;;;;15.80;9.93;;;9.60;91.50;;;;;;5080789;28;20119;-80
2021/10/29 02:53:18;;;;;;;15.73;9.80;;;9.60;91.40;;;;;;5061164;28;20488;-78
2021/10/29 02:55:44;;;;;;;14.10;10.50;;;9.60;91.40;;;;;;5079436;28;20036;-80
2021/10/29 02:58:10;;;;;;;16.63;10.20;;;9.60;91.40;;;;;;5092268;28;20032;-80
2021/10/29 03:00:35;;;;;;;13.87;10.30;;;9.60;91.50;;;;;;5072332;28;20058;-79
2021/10/29 03:03:01;;;;;;;16.53;10.37;;;9.60;91.40;;;;;;5107712;28;20032;-80
2021/10/29 03:05:27;;;;;;;12.63;9.80;;;9.60;91.50;;;;;;5081255;28;20377;-79
2021/10/29 03:07:53;;;;;;;15.77;10.07;;;9.60;91.50;;;;;;5080321;28;20101;-79
2021/10/29 03:10:18;;;;;;;15.27;10.40;;;9.60;91.60;;;;;;5108900;28;20688;-80
2021/10/29 03:12:44;;;;;;;17.07;9.73;;;9.50;91.60;;;;;;5087387;28;20028;-80
2021/10/29 03:15:11;;;;;;;14.63;10.13;;;9.50;91.60;;;;;;5109377;28;20072;-80
2021/10/29 03:17:37;;;;;;;15.00;10.77;;;9.50;91.60;;;;;;5074039;28;20081;-80
2021/10/29 03:20:05;;;;;;;13.57;10.17;;;9.50;91.70;;;;;;5072207;28;20524;-79
2021/10/29 03:22:31;;;;;;;14.27;10.20;;;9.50;91.70;;;;;;5085388;28;20055;-79
2021/10/29 03:24:57;;;;;;;12.77;10.30;;;9.50;91.70;;;;;;5109262;28;20055;-79
2021/10/29 03:27:22;;;;;;;16.47;10.03;;;9.50;91.80;;;;;;5075050;28;20051;-78
2021/10/29 03:29:48;;;;;;;16.00;10.37;;;9.50;91.80;;;;;;5109940;28;20119;-78
2021/10/29 03:32:17;;;;;;;16.17;10.27;;;9.40;91.80;;;;;;5106549;28;20031;-79
2021/10/29 03:34:43;;;;;;;14.73;10.23;;;9.50;92.00;;;;;;5070907;28;20672;-80
2021/10/29 03:37:23;;;;;;;14.27;9.60;;;9.40;91.80;;;;;;5072927;28;20028;-79
2021/10/29 03:40:06;;;;;;;16.13;10.43;;;9.50;91.80;;;;;;5065377;28;20123;-79
2021/10/29 03:42:36;;;;;;;12.63;9.65;;;9.50;91.80;;;;;;5082662;28;20024;-79
2021/10/29 03:45:05;;;;;;;11.93;9.47;;;9.50;91.70;;;;;;5075788;28;20032;-79
2021/10/29 03:47:38;;;;;;;12.93;9.90;;;9.50;91.70;;;;;;5074237;28;20031;-79
2021/10/29 03:50:25;;;;;;;14.27;9.52;;;9.50;91.80;;;;;;5092526;28;20030;-79
2021/10/29 03:53:04;;;;;;;13.77;10.20;;;9.40;91.80;;;;;;5107862;28;20028;-79
2021/10/29 03:55:39;;;;;;;12.87;9.67;;;9.50;91.80;;;;;;5102885;28;20028;-77
2021/10/29 03:58:05;;;;;;;16.53;10.30;;;9.40;91.80;;;;;;5060679;28;20047;-79
2021/10/29 04:00:30;;;;;;;16.27;10.80;;;9.40;91.80;;;;;;5071020;28;20116;-78
2021/10/29 04:03:02;;;;;;;11.50;9.63;;;9.40;91.90;;;;;;5084935;28;20114;-79
2021/10/29 04:05:30;;;;;;;14.40;9.53;;;9.40;91.90;;;;;;5113826;28;20032;-77
2021/10/29 04:07:56;;;;;;;15.63;10.20;;;9.30;91.90;;;;;;5112854;28;20035;-78
2021/10/29 04:10:27;;;;;;;15.60;10.03;;;9.30;92.00;;;;;;5113094;28;20035;-79
2021/10/29 04:12:54;;;;;;;13.60;9.53;;;9.20;92.00;;;;;;5111668;28;20031;-79
2021/10/29 04:15:20;;;;;;;14.87;10.83;;;9.30;92.00;;;;;;5089023;28;20080;-82
2021/10/29 04:17:46;;;;;;;16.93;10.10;;;9.30;92.10;;;;;;5074478;28;20055;-80
2021/10/29 04:20:12;;;;;;;15.73;10.57;;;9.20;92.10;;;;;;5093261;28;20384;-79
2021/10/29 04:22:38;;;;;;;14.93;10.43;;;9.20;92.10;;;;;;5078190;28;20080;-79
2021/10/29 04:25:04;;;;;;;20.17;9.67;;;9.20;92.10;;;;;;5096361;28;20575;-80
2021/10/29 04:27:31;;;;;;;12.37;10.43;;;9.20;92.10;;;;;;5094174;28;20052;-80
2021/10/29 04:29:57;;;;;;;14.10;9.57;;;9.30;92.40;;;;;;5077937;28;20047;-80
2021/10/29 04:32:22;;;;;;;15.90;9.93;;;9.20;92.10;;;;;;5110953;28;20024;-80
2021/10/29 04:34:48;;;;;;;16.00;10.57;;;9.30;92.10;;;;;;5093364;28;20027;-79
2021/10/29 04:37:14;;;;;;;13.13;9.70;;;9.30;92.20;;;;;;5112258;28;20475;-80
2021/10/29 04:39:39;;;;;;;14.63;9.77;;;9.30;92.10;;;;;;5076260;28;20464;-79
2021/10/29 04:42:05;;;;;;;16.93;9.47;;;9.20;92.10;;;;;;5084739;28;20704;-80
2021/10/29 04:44:31;;;;;;;13.93;8.93;;;9.20;92.00;;;;;;5094331;28;20436;-80
2021/10/29 04:46:56;;;;;;;13.10;10.50;;;9.30;92.10;;;;;;5094051;28;20046;-80
2021/10/29 04:49:22;;;;;;;13.00;9.37;;;9.20;92.00;;;;;;5078662;28;20039;-80
2021/10/29 04:51:48;;;;;;;13.23;9.70;;;9.20;92.10;;;;;;5086207;28;20467;-80
2021/10/29 04:54:14;;;;;;;11.97;9.40;;;9.20;92.10;;;;;;5113153;28;20015;-80
2021/10/29 04:56:43;;;;;;;14.20;9.13;;;9.20;92.10;;;;;;5095208;28;20101;-81
2021/10/29 04:59:10;;;;;;;15.43;10.40;;;9.20;92.10;;;;;;5041930;28;20074;-81
2021/10/29 05:01:36;;;;;;;12.40;9.40;;;9.20;92.10;;;;;;5085377;28;20024;-78
2021/10/29 05:04:02;;;;;;;12.53;9.47;;;9.20;92.10;;;;;;5086057;28;20028;-81
2021/10/29 05:06:28;;;;;;;15.60;10.23;;;9.20;92.10;;;;;;5093284;28;20039;-81
2021/10/29 05:08:54;;;;;;;14.93;9.87;;;9.20;92.10;;;;;;5089307;28;20081;-81
2021/10/29 05:11:19;;;;;;;12.93;9.93;;;9.20;92.10;;;;;;5057867;28;20071;-81
2021/10/29 05:13:45;;;;;;;15.67;10.60;;;9.20;92.10;;;;;;5085971;28;20027;-81
2021/10/29 05:16:10;;;;;;;13.03;10.20;;;9.30;92.10;;;;;;5097482;28;20040;-81
2021/10/29 05:18:36;;;;;;;13.20;10.27;;;9.20;92.10;;;;;;5065914;28;20036;-81
2021/10/29 05:21:02;;;;;;;14.33;10.30;;;9.30;92.10;;;;;;5072969;28;20123;-82
2021/10/29 05:23:27;;;;;;;14.37;10.67;;;9.20;92.10;;;;;;5100310;28;20123;-82
2021/10/29 05:25:53;;;;;;;13.97;11.33;;;9.20;92.10;;;;;;5072908;28;20062;-81
2021/10/29 05:28:19;;;;;;;14.83;10.63;;;9.10;92.20;;;;;;5092624;28;20067;-80
2021/10/29 05:30:44;;;;;;;16.27;11.30;;;9.10;92.20;;;;;;5090511;28;20035;-81
2021/10/29 05:33:10;;;;;;;18.33;12.03;;;9.10;92.30;;;;;;5102559;28;20813;-81
2021/10/29 05:35:36;;;;;;;20.47;11.93;;;9.00;92.40;;;;;;5088347;28;20127;-81
2021/10/29 05:38:03;;;;;;;16.70;10.73;;;9.00;92.50;;;;;;5090956;28;20633;-80
2021/10/29 05:40:29;;;;;;;16.70;11.03;;;9.00;92.50;;;;;;5112050;28;20039;-81
2021/10/29 05:42:54;;;;;;;17.83;12.70;;;9.00;92.50;;;;;;5110240;28;20036;-80
2021/10/29 05:45:20;;;;;;;18.50;11.67;;;9.00;92.60;;;;;;5093127;28;20031;-81
2021/10/29 05:47:46;;;;;;;18.03;11.13;;;9.00;92.60;;;;;;5090427;28;20480;-79
2021/10/29 05:50:12;;;;;;;16.77;10.50;;;9.00;92.60;;;;;;5073374;28;20067;-81
2021/10/29 05:52:41;;;;;;;14.87;10.30;;;9.00;92.60;;;;;;5085319;28;20036;-81
2021/10/29 05:55:16;;;;;;;15.40;11.40;;;9.00;92.60;;;;;;5095946;28;20027;-81
2021/10/29 05:57:44;;;;;;;13.03;10.40;;;9.10;92.60;;;;;;5085040;28;20111;-81
2021/10/29 06:00:10;;;;;;;17.20;10.97;;;9.10;92.50;;;;;;5124113;28;20024;-80
2021/10/29 06:02:37;;;;;;;14.97;11.20;;;9.10;92.50;;;;;;5077605;28;20059;-81
2021/10/29 06:05:03;;;;;;;15.30;10.57;;;9.20;92.50;;;;;;5092311;28;20456;-81
2021/10/29 06:07:28;;;;;;;15.60;10.40;;;9.20;92.40;;;;;;5076258;28;20143;-81
2021/10/29 06:09:54;;;;;;;15.03;10.03;;;9.20;92.30;;;;;;5092694;28;20031;-81
2021/10/29 06:12:19;;;;;;;16.67;10.70;;;9.20;92.30;;;;;;5098754;28;20028;-81
2021/10/29 06:14:46;;;;;;;13.10;9.47;;;9.20;92.30;;;;;;5111298;28;20028;-78
2021/10/29 06:17:17;;;;;;;18.00;10.70;;;9.20;92.30;;;;;;5092334;28;20047;-81
2021/10/29 06:19:43;;;;;;;15.03;10.13;;;9.20;92.20;;;;;;5091434;28;20043;-81
2021/10/29 06:22:15;;;;;;;16.43;10.70;;;9.30;92.30;;;;;;5063816;28;20704;-81
2021/10/29 06:24:41;;;;;;;15.50;10.30;;;9.30;92.10;;;;;;5076785;28;20031;-81
2021/10/29 06:28:08;;;;;;;12.77;9.73;;;9.40;92.10;;;;;;5068422;28;20891;-78
2021/10/29 06:29:52;;;;;;;12.40;9.00;;;9.40;92.10;;;;;;5107629;28;20433;-81
2021/10/29 06:32:20;;;;;;;13.33;9.47;;;9.40;92.00;;;;;;5059435;28;20065;-82
2021/10/29 06:34:46;;;;;;;12.10;8.90;;;9.40;91.90;;;;;;5073047;28;20077;-81
2021/10/29 06:37:16;;;;;;;13.37;9.27;;;9.50;91.80;;;;;;5098758;28;20612;-82
2021/10/29 06:39:44;;;;;;;16.13;10.27;;;9.50;91.80;;;;;;5082377;28;21341;-79
2021/10/29 06:42:15;;;;;;;12.97;9.27;;;9.50;91.70;;;;;;5081861;28;20020;-80
2021/10/29 07:41:06;;;;;;;13.30;7.90;;;12.10;83.10;;;;;;5076161;28;20048;-84
2021/10/29 07:43:44;;;;;;;9.20;7.67;;;12.20;82.40;;;;;;5074615;28;20679;-81
2021/10/29 07:46:11;;;;;;;13.23;7.47;;;12.20;82.20;;;;;;5072731;28;20432;-83
2021/10/29 07:48:36;;;;;;;11.13;6.87;;;12.30;82.00;;;;;;5074554;28;20028;-83
2021/10/29 07:51:03;;;;;;;12.10;8.00;;;12.30;81.50;;;;;;5073742;28;20110;-78
2021/10/29 07:53:30;;;;;;;17.23;7.60;;;12.40;81.00;;;;;;5070683;28;20067;-79
2021/10/29 07:55:57;;;;;;;11.10;7.33;;;12.60;80.40;;;;;;5075560;28;20488;-79
2021/10/29 07:58:23;;;;;;;11.65;6.95;;;12.70;80.40;;;;;;5073064;28;20033;-82
2021/10/29 08:00:49;;;;;;;11.23;6.65;;;12.90;79.60;;;;;;5076957;28;20074;-81
2021/10/29 08:03:14;;;;;;;9.70;6.63;;;13.10;79.00;;;;;;5057045;28;20044;-82
2021/10/29 08:05:41;;;;;;;11.05;6.93;;;13.50;77.60;;;;;;5072648;28;20037;-83
2021/10/29 08:08:07;;;;;;;12.30;6.88;;;13.70;76.50;;;;;;5072707;28;20040;-80
2021/10/29 08:10:34;;;;;;;9.63;7.00;;;14.00;75.80;;;;;;5069532;28;20024;-83
2021/10/29 08:13:03;;;;;;;10.15;6.95;;;14.40;75.00;;;;;;5083162;28;20024;-82
2021/10/29 08:15:30;;;;;;;9.48;6.47;;;14.70;73.90;;;;;;5080491;28;20028;-84
2021/10/29 08:17:55;;;;;;;13.32;6.53;;;14.90;72.60;;;;;;5080116;28;20039;-83
2021/10/29 08:20:22;;;;;;;10.45;6.60;;;14.90;72.60;;;;;;5080623;28;20028;-83
2021/10/29 08:22:50;;;;;;;10.07;5.55;;;15.10;71.80;;;;;;5087506;28;20061;-84
2021/10/29 08:25:16;;;;;;;11.00;6.00;;;15.10;72.00;;;;;;5083594;28;20032;-84
2021/10/29 08:27:41;;;;;;;9.13;6.07;;;15.30;71.60;;;;;;5100888;28;20389;-85
2021/10/29 08:30:09;;;;;;;8.95;5.82;;;15.60;70.40;;;;;;5070542;28;20035;-80
2021/10/29 08:32:39;;;;;;;9.00;6.18;;;15.80;69.60;;;;;;5087043;28;20038;-84
2021/10/29 08:35:06;;;;;;;8.20;5.28;;;15.90;69.00;;;;;;5084868;28;20032;-83
2021/10/29 08:37:33;;;;;;;11.85;5.68;;;15.80;68.90;;;;;;5086297;28;20649;-85
2021/10/29 08:39:58;;;;;;;8.32;5.60;;;15.50;69.50;;;;;;5089135;28;20020;-83
2021/10/29 08:42:24;;;;;;;9.15;5.63;;;15.40;70.00;;;;;;5090847;28;20024;-83
2021/10/29 08:44:51;;;;;;;7.00;5.38;;;15.40;70.70;;;;;;5091255;28;20022;-82
2021/10/29 08:47:22;;;;;;;7.32;5.55;;;15.50;70.00;;;;;;5088885;28;20039;-83
2021/10/29 08:49:49;;;;;;;9.85;6.68;;;15.50;69.80;;;;;;5084384;28;20092;-84
2021/10/29 08:52:21;;;;;;;11.73;6.97;;;15.50;70.10;;;;;;5078258;28;20488;-82
2021/10/29 08:54:48;;;;;;;12.37;5.93;;;15.60;69.80;;;;;;5089373;28;20049;-83
2021/10/29 08:57:14;;;;;;;7.22;5.95;;;15.90;69.10;;;;;;5113195;28;20028;-84
2021/10/29 08:59:40;;;;;;;9.95;6.88;;;16.30;68.40;;;;;;5092978;28;20040;-84
2021/10/29 09:04:44;;;;;;;9.95;6.03;;;16.70;66.60;;;;;;5094697;28;20052;-84
2021/10/29 09:32:31;;;;;;;6.68;4.60;;;17.80;63.70;;;;;;5104755;28;20088;-80
2021/10/29 09:35:05;;;;;;;9.75;5.07;;;17.90;63.40;;;;;;5099889;28;20032;-82
2021/10/29 09:37:35;;;;;;;5.63;3.63;;;18.00;63.30;;;;;;5085705;28;20134;-81
2021/10/29 09:40:13;;;;;;;8.18;5.57;;;18.10;62.70;;;;;;5103122;28;20482;-83
2021/10/29 09:42:40;;;;;;;5.45;4.07;;;18.20;62.80;;;;;;5094883;28;20510;-84
2021/10/29 09:45:18;;;;;;;5.88;4.70;;;18.30;62.40;;;;;;5104669;28;20032;-83
2021/10/29 09:47:51;;;;;;;6.88;4.25;;;18.20;62.60;;;;;;5099795;28;20023;-85
2021/10/29 09:50:25;;;;;;;7.13;4.32;;;18.10;62.80;;;;;;5074489;28;20035;-79
2021/10/29 09:53:22;;;;;;;7.18;4.13;;;18.20;63.00;;;;;;5087397;28;20024;-84
2021/10/29 09:58:19;;;;;;;7.35;3.72;;;18.60;62.20;;;;;;5087106;28;20078;-79
2021/10/29 10:00:45;;;;;;;6.88;4.05;;;18.60;62.00;;;;;;5090160;28;20020;-82
2021/10/29 10:03:15;;;;;;;9.23;4.88;;;18.80;61.80;;;;;;5099076;28;20019;-82
2021/10/29 10:05:41;;;;;;;6.78;3.80;;;18.90;61.20;;;;;;5091794;28;20071;-83
2021/10/29 10:08:09;;;;;;;8.05;4.30;;;18.90;60.90;;;;;;5099378;28;20037;-82
2021/10/29 10:10:37;;;;;;;9.85;4.78;;;18.90;61.10;;;;;;5092866;28;20059;-84
2021/10/29 10:13:04;;;;;;;5.50;4.10;;;18.80;61.30;;;;;;5104087;28;20019;-81
2021/10/29 10:15:32;;;;;;;6.20;4.43;;;18.70;61.20;;;;;;5108679;28;20673;-84
2021/10/29 10:17:58;;;;;;;8.07;4.32;;;18.70;61.40;;;;;;5085808;28;20062;-82
2021/10/29 10:20:25;;;;;;;7.50;3.88;;;18.50;61.60;;;;;;5085972;28;20039;-82
2021/10/29 10:22:51;;;;;;;7.85;4.10;;;18.60;61.50;;;;;;5075231;28;20460;-81
2021/10/29 10:25:37;;;;;;;8.75;5.20;;;18.50;61.60;;;;;;5063240;28;20353;-82
2021/10/29 10:47:40;;;;;;;5.10;3.67;;;19.10;61.70;;;;;;5101471;28;20133;-83
2021/10/29 10:50:20;;;;;;;4.75;2.97;;;19.30;61.10;;;;;;5080080;28;20023;-84
2021/10/29 10:55:55;;;;;;;6.68;2.85;;;19.50;60.80;;;;;;5106145;28;20039;-85
2021/10/29 10:58:40;;;;;;;3.70;2.78;;;19.60;60.70;;;;;;5078652;28;20043;-84
2021/10/29 11:01:22;;;;;;;4.65;2.95;;;19.80;60.50;;;;;;5095425;28;20054;-83
2021/10/29 11:04:26;;;;;;;5.70;2.58;;;20.00;59.60;;;;;;5075461;28;20107;-82
2021/10/29 11:07:02;;;;;;;8.50;2.85;;;19.80;59.70;;;;;;5097819;28;20028;-82
2021/10/29 11:10:00;;;;;;;7.15;3.17;;;19.20;60.30;;;;;;5078038;28;20038;-78
2021/10/29 11:12:41;;;;;;;5.88;3.17;;;18.70;61.70;;;;;;5086667;28;20128;-82
2021/10/29 11:15:10;;;;;;;5.75;2.75;;;18.40;62.60;;;;;;5086985;28;20027;-81
2021/10/29 11:17:57;;;;;;;7.82;2.67;;;18.10;63.00;;;;;;5093867;28;20039;-82
2021/10/29 11:20:49;;;;;;;5.35;2.67;;;18.00;63.70;;;;;;5078190;28;20043;-82
2021/10/29 11:23:35;;;;;;;7.50;3.03;;;17.90;63.90;;;;;;5106388;28;20034;-81
2021/10/29 11:26:04;;;;;;;6.75;2.95;;;17.90;64.00;;;;;;5080332;28;20051;-83
2021/10/29 11:28:36;;;;;;;5.85;2.28;;;17.90;64.20;;;;;;5105196;28;20057;-78
2021/10/29 11:31:04;;;;;;;3.63;2.45;;;17.90;64.20;;;;;;5096582;28;20089;-82
2021/10/29 11:33:31;;;;;;;4.32;2.65;;;18.00;64.30;;;;;;5095459;28;20072;-80
2021/10/29 11:36:06;;;;;;;4.80;2.40;;;17.90;64.30;;;;;;5113212;28;20093;-80
2021/10/29 11:38:35;;;;;;;5.35;3.10;;;17.80;64.40;;;;;;5112561;28;20062;-80
2021/10/29 11:41:03;;;;;;;4.57;2.90;;;17.80;64.50;;;;;;5120566;28;20024;-82
2021/10/29 11:43:32;;;;;;;8.52;3.13;;;17.80;64.80;;;;;;5122226;28;20512;-81
2021/10/29 11:46:00;;;;;;;4.97;2.13;;;17.80;64.70;;;;;;5122372;28;20023;-82
2021/10/29 11:48:27;;;;;;;7.22;2.80;;;17.80;65.00;;;;;;5095952;28;20031;-82
2021/10/29 11:51:08;;;;;;;4.40;2.30;;;17.80;65.40;;;;;;5095273;28;20571;-82
2021/10/29 11:53:36;;;;;;;3.95;2.50;;;17.80;65.60;;;;;;5113431;28;20080;-80
2021/10/29 11:56:11;;;;;;;6.80;2.80;;;17.70;65.80;;;;;;5114049;28;20406;-82
2021/10/29 11:58:59;;;;;;;6.65;2.53;;;17.60;66.00;;;;;;5094515;28;20092;-80
2021/10/29 12:01:30;;;;;;;5.45;2.42;;;17.60;66.50;;;;;;5082003;28;20425;-83
2021/10/29 12:09:28;;;;;;;6.53;3.00;;;17.60;67.40;;;;;;5094801;28;20035;-83
2021/10/29 12:12:08;;;;;;;5.38;2.88;;;17.70;67.30;;;;;;5113195;28;20031;-82
2021/10/29 12:14:37;;;;;;;5.30;2.75;;;17.70;67.40;;;;;;5091768;28;20414;-82
2021/10/29 12:17:25;;;;;;;4.68;2.78;;;17.80;67.60;;;;;;5113512;28;20028;-82
2021/10/29 12:19:59;;;;;;;4.68;2.92;;;17.80;67.60;;;;;;5111084;28;20034;-82
2021/10/29 12:22:35;;;;;;;5.80;2.65;;;17.90;67.60;;;;;;5093487;28;20596;-82
2021/10/29 12:27:46;;;;;;;4.63;2.63;;;17.90;67.60;;;;;;5093913;28;20127;-79
2021/10/29 13:01:38;;;;;;;4.47;1.20;;;19.50;60.60;;;;;;5074023;28;20463;-81
2021/10/29 13:04:17;;;;;;;3.08;1.08;;;19.50;60.10;;;;;;5107523;28;20304;-80
2021/10/29 13:06:49;;;;;;;2.42;1.15;;;19.40;60.30;;;;;;5089995;28;20134;-82
2021/10/29 13:09:21;;;;;;;2.60;1.17;;;19.30;60.40;;;;;;5086499;28;20595;-82
2021/10/29 13:11:52;;;;;;;3.17;0.95;;;19.30;60.50;;;;;;5106960;28;20019;-80
2021/10/29 13:14:27;;;;;;;4.68;1.10;;;19.30;61.00;;;;;;5086307;28;20510;-82
2021/10/29 13:16:54;;;;;;;5.78;1.25;;;19.30;61.00;;;;;;5071437;28;20436;-82
2021/10/29 13:22:46;;;;;;;2.47;1.05;;;19.30;60.70;;;;;;5076786;28;20445;-82
2021/10/29 13:25:10;;;;;;;3.42;1.05;;;19.30;61.10;;;;;;5103622;28;20031;-82
2021/10/29 13:54:56;;;;;;;3.25;1.20;;;19.10;61.10;;;;;;5093423;28;20040;-81
2021/10/29 14:35:33;;;;;;;2.10;1.08;;;18.70;61.90;;;;;;5081895;28;20113;-80
2021/10/29 14:40:32;;;;;;;4.25;1.27;;;18.60;62.30;;;;;;5115208;28;20463;-81
2021/10/29 15:04:26;;;;;;;4.85;1.33;;;18.10;63.50;;;;;;5098677;28;20091;-79
2021/10/29 15:07:09;;;;;;;3.78;1.33;;;18.10;63.50;;;;;;5071257;28;20543;-81
2021/10/29 15:31:14;;;;;;;4.68;1.50;;;17.40;65.20;;;;;;5070744;28;20044;-81
2021/10/29 15:42:24;;;;;;;3.50;1.48;;;17.20;65.90;;;;;;5077087;28;20083;-81
2021/10/29 15:44:41;;;;;;;4.43;1.50;;;17.20;66.10;;;;;;5072264;28;20044;-80
2021/10/29 15:47:10;;;;;;;3.63;1.60;;;17.20;66.10;;;;;;5062375;28;20341;-79
2021/10/29 15:52:08;;;;;;;3.30;1.33;;;17.20;66.40;;;;;;5076618;28;20040;-80
2021/10/29 15:54:40;;;;;;;4.63;1.55;;;17.20;66.50;;;;;;5076394;28;20057;-80
2021/10/29 15:57:06;;;;;;;4.18;1.30;;;17.10;66.60;;;;;;5082743;28;20031;-80
2021/10/29 16:18:25;;;;;;;3.97;1.23;;;17.30;66.30;;;;;;5087738;28;20462;-79
2021/10/29 16:20:50;;;;;;;3.22;1.40;;;17.30;66.20;;;;;;5084525;28;20036;-79
2021/10/29 16:23:17;;;;;;;3.65;1.38;;;17.30;66.30;;;;;;5083900;28;20495;-79
2021/10/29 16:25:53;;;;;;;3.55;1.40;;;17.30;66.50;;;;;;5078401;28;20425;-81
2021/10/29 16:28:21;;;;;;;2.78;1.45;;;17.30;66.70;;;;;;5102398;28;20066;-80
2021/10/29 16:30:47;;;;;;;5.65;1.63;;;17.30;66.80;;;;;;5078510;28;20532;-81
2021/10/29 16:33:24;;;;;;;3.42;1.33;;;17.20;66.80;;;;;;5111045;28;20059;-78
2021/10/29 16:35:51;;;;;;;3.03;1.60;;;17.20;67.00;;;;;;5096925;28;20032;-81
2021/10/29 16:38:16;;;;;;;5.93;1.67;;;17.20;67.10;;;;;;5093441;28;20035;-79
2021/10/29 16:40:42;;;;;;;4.68;1.55;;;17.20;66.90;;;;;;5084029;28;20084;-79
2021/10/29 16:43:08;;;;;;;5.53;1.70;;;17.20;67.00;;;;;;5086778;28;20103;-80
2021/10/29 16:45:41;;;;;;;4.05;2.15;;;17.20;67.40;;;;;;5104650;28;20034;-80
2021/10/29 16:48:07;;;;;;;3.95;1.83;;;17.20;67.80;;;;;;5097612;28;20223;-79
2021/10/29 16:50:32;;;;;;;3.65;1.70;;;17.10;69.00;;;;;;5075518;28;20032;-80
2021/10/29 16:52:58;;;;;;;4.00;1.65;;;17.00;69.10;;;;;;5062111;28;20471;-79
2021/10/29 16:55:24;;;;;;;3.58;1.80;;;16.90;69.70;;;;;;5038758;28;20032;-79
2021/10/29 16:57:49;;;;;;;1.88;1.38;;;16.80;70.20;;;;;;5076537;28;20047;-79
2021/10/29 17:00:16;;;;;;;5.57;1.88;;;16.80;71.00;;;;;;5057658;28;20066;-78
2021/10/29 17:02:42;;;;;;;3.58;1.88;;;16.70;71.90;;;;;;5093861;28;20036;-77
2021/10/29 17:05:09;;;;;;;5.25;2.30;;;16.60;72.30;;;;;;5062568;28;20038;-77
2021/10/29 17:07:35;;;;;;;6.55;1.80;;;16.50;73.40;;;;;;5064294;28;20032;-78
2021/10/29 17:10:07;;;;;;;5.35;2.45;;;16.40;73.60;;;;;;5077469;28;20024;-79
2021/10/29 17:12:34;;;;;;;3.22;1.88;;;16.30;74.10;;;;;;5081752;28;20031;-77
2021/10/29 17:15:00;;;;;;;4.50;2.00;;;16.20;74.50;;;;;;5083429;28;20044;-77
2021/10/29 17:17:26;;;;;;;4.50;2.28;;;16.20;74.70;;;;;;5105430;28;20095;-78
2021/10/29 17:19:51;;;;;;;4.30;1.83;;;16.20;75.20;;;;;;5109176;28;20032;-79
2021/10/29 17:22:18;;;;;;;3.75;1.90;;;16.10;75.30;;;;;;5109787;28;20032;-78
2021/10/29 17:24:45;;;;;;;6.22;2.15;;;16.10;75.50;;;;;;5074100;28;20116;-80
2021/10/29 17:27:10;;;;;;;3.80;1.92;;;16.10;75.90;;;;;;5076626;28;20668;-79
2021/10/29 17:29:36;;;;;;;3.97;1.70;;;16.10;75.90;;;;;;5069963;28;20039;-78
2021/10/29 17:32:04;;;;;;;3.78;1.42;;;16.10;76.10;;;;;;5088491;28;20050;-78
2021/10/29 17:34:29;;;;;;;2.72;1.75;;;16.10;76.30;;;;;;5108163;28;20046;-78
2021/10/29 17:36:55;;;;;;;2.90;1.80;;;16.10;76.50;;;;;;5085173;28;20024;-78
2021/10/29 17:39:23;;;;;;;3.17;2.38;;;16.10;76.60;;;;;;5082022;28;20047;-80
2021/10/29 17:41:48;;;;;;;14.60;11.70;;;16.10;76.80;;;;;;5081698;28;20039;-77